createdAt,value
2017-05-07T00:01:15.065Z,10.00
2017-05-07T00:03:43.438Z,10.00
2017-05-07T00:06:11.707Z,10.10
2017-05-07T00:08:39.985Z,10.10
2017-05-07T00:11:08.225Z,10.10
2017-05-07T00:13:36.481Z,10.10
2017-05-07T00:16:04.716Z,10.30
2017-05-07T00:18:33.064Z,10.30
2017-05-07T00:21:02.040Z,10.20
2017-05-07T00:23:30.495Z,10.10
2017-05-07T00:25:58.827Z,10.10
2017-05-07T00:28:27.806Z,10.00
2017-05-07T00:30:56.784Z,10.00
2017-05-07T00:33:25.011Z,10.20
2017-05-07T00:35:53.360Z,10.30
2017-05-07T00:38:22.566Z,10.30
2017-05-07T00:40:51.535Z,10.40
2017-05-07T00:43:19.771Z,10.50
2017-05-07T00:45:48.004Z,10.40
2017-05-07T00:48:16.993Z,10.30
2017-05-07T00:50:45.969Z,10.20
2017-05-07T00:53:14.211Z,10.20
2017-05-07T00:55:42.554Z,10.00
2017-05-07T00:58:10.814Z,10.00
2017-05-07T01:00:39.809Z,9.90
2017-05-07T01:03:08.074Z,9.90
2017-05-07T01:05:37.060Z,9.70
2017-05-07T01:08:06.045Z,9.70
2017-05-07T01:10:34.382Z,9.60
2017-05-07T01:13:02.624Z,9.60
2017-05-07T01:15:30.861Z,9.50
2017-05-07T01:17:59.107Z,9.30
2017-05-07T01:20:27.453Z,9.20
2017-05-07T01:22:55.758Z,9.10
2017-05-07T01:25:23.984Z,9.10
2017-05-07T01:27:53.028Z,9.10
2017-05-07T01:30:21.407Z,9.30
2017-05-07T01:32:49.681Z,9.40
2017-05-07T01:35:18.284Z,9.30
2017-05-07T01:37:46.515Z,9.30
2017-05-07T01:40:14.769Z,9.40
2017-05-07T01:42:43.766Z,9.50
2017-05-07T01:45:12.759Z,9.40
2017-05-07T01:47:40.996Z,9.40
2017-05-07T01:50:09.288Z,9.30
2017-05-07T01:52:38.298Z,9.20
2017-05-07T01:55:06.548Z,9.10
2017-05-07T01:57:34.852Z,9.00
2017-05-07T02:00:03.115Z,9.00
2017-05-07T02:02:32.114Z,9.00
2017-05-07T02:05:01.100Z,9.00
2017-05-07T02:07:30.109Z,9.00
2017-05-07T02:09:58.373Z,9.00
2017-05-07T02:12:27.369Z,8.90
2017-05-07T02:14:56.369Z,8.80
2017-05-07T02:17:24.645Z,8.70
2017-05-07T02:19:52.916Z,8.60
2017-05-07T02:22:21.152Z,8.60
2017-05-07T02:24:49.397Z,8.60
2017-05-07T02:27:17.652Z,8.60
2017-05-07T02:29:45.884Z,8.70
2017-05-07T02:32:14.125Z,8.60
2017-05-07T02:34:42.360Z,8.60
2017-05-07T02:37:10.584Z,8.50
2017-05-07T02:39:38.909Z,8.50
2017-05-07T02:42:07.198Z,8.40
2017-05-07T02:44:35.436Z,8.40
2017-05-07T02:47:03.664Z,8.40
2017-05-07T02:49:32.108Z,8.40
2017-05-07T02:52:01.097Z,8.30
2017-05-07T02:54:30.191Z,8.40
2017-05-07T02:56:59.177Z,8.40
2017-05-07T02:59:28.159Z,8.40
2017-05-07T03:01:57.129Z,8.30
2017-05-07T03:04:25.372Z,8.30
2017-05-07T03:06:53.629Z,8.20
2017-05-07T03:09:21.892Z,8.20
2017-05-07T03:11:50.857Z,8.20
2017-05-07T03:14:19.172Z,8.30
2017-05-07T03:16:47.432Z,8.40
2017-05-07T03:19:16.400Z,8.40
2017-05-07T03:21:44.723Z,8.50
2017-05-07T03:24:12.976Z,8.40
2017-05-07T03:26:42.018Z,8.40
2017-05-07T03:29:10.295Z,8.60
2017-05-07T03:31:38.635Z,8.50
2017-05-07T03:34:06.951Z,8.60
2017-05-07T03:36:35.284Z,8.50
2017-05-07T03:39:03.567Z,8.60
2017-05-07T03:41:31.829Z,8.60
2017-05-07T03:44:00.807Z,8.40
2017-05-07T03:46:29.783Z,8.40
2017-05-07T03:48:58.127Z,8.50
2017-05-07T03:51:26.366Z,8.50
2017-05-07T03:53:55.332Z,8.30
2017-05-07T03:56:23.564Z,8.40
2017-05-07T03:58:51.794Z,8.40
2017-05-07T04:01:20.777Z,8.50
2017-05-07T04:03:49.016Z,8.50
2017-05-07T04:06:17.347Z,8.40
2017-05-07T04:08:46.340Z,8.20
2017-05-07T04:11:15.335Z,8.10
2017-05-07T04:13:43.585Z,8.20
2017-05-07T04:16:11.819Z,8.20
2017-05-07T04:18:40.072Z,8.30
2017-05-07T04:21:08.295Z,8.40
2017-05-07T04:23:36.605Z,8.50
2017-05-07T04:26:04.883Z,8.60
2017-05-07T04:28:32.344Z,8.60
2017-05-07T04:31:00.660Z,8.70
2017-05-07T04:33:28.888Z,8.80
2017-05-07T04:35:57.167Z,8.70
2017-05-07T04:38:25.439Z,8.60
2017-05-07T04:40:54.479Z,8.40
2017-05-07T04:43:22.811Z,8.40
2017-05-07T04:45:51.786Z,8.20
2017-05-07T04:48:20.075Z,8.40
2017-05-07T04:50:49.063Z,8.50
2017-05-07T04:53:18.041Z,8.70
2017-05-07T04:55:46.350Z,8.90
2017-05-07T04:58:14.621Z,9.00
2017-05-07T05:00:42.889Z,9.10
2017-05-07T05:03:11.902Z,9.20
2017-05-07T05:05:40.179Z,9.40
2017-05-07T05:08:08.403Z,9.60
2017-05-07T05:10:36.704Z,9.60
2017-05-07T05:13:05.702Z,9.50
2017-05-07T05:15:33.945Z,9.60
2017-05-07T05:18:02.182Z,9.70
2017-05-07T05:20:45.381Z,9.80
2017-05-07T05:26:37.012Z,9.80
2017-05-07T05:29:20.857Z,10.10
2017-05-07T05:31:49.141Z,10.30
2017-05-07T05:34:17.377Z,10.40
2017-05-07T05:36:45.634Z,10.40
2017-05-07T05:39:13.867Z,10.40
2017-05-07T05:41:42.116Z,10.70
2017-05-07T05:44:11.107Z,10.40
2017-05-07T05:46:40.097Z,10.10
2017-05-07T05:49:09.088Z,10.00
2017-05-07T05:51:38.092Z,9.90
2017-05-07T05:54:07.076Z,9.90
2017-05-07T05:56:36.082Z,9.80
2017-05-07T05:59:04.352Z,10.10
2017-05-07T06:01:33.357Z,10.20
2017-05-07T06:04:01.660Z,10.30
2017-05-07T06:06:29.916Z,10.30
2017-05-07T06:08:58.158Z,10.30
2017-05-07T06:11:26.385Z,10.30
2017-05-07T06:13:54.625Z,10.30
2017-05-07T06:16:22.865Z,10.40
2017-05-07T06:18:51.113Z,10.60
2017-05-07T06:21:19.452Z,11.00
2017-05-07T06:23:48.449Z,11.30
2017-05-07T06:26:16.724Z,11.30
2017-05-07T06:28:44.958Z,11.40
2017-05-07T06:31:13.324Z,11.20
2017-05-07T06:33:41.620Z,11.30
2017-05-07T06:36:09.923Z,11.50
2017-05-07T06:38:38.204Z,11.80
2017-05-07T06:41:06.473Z,12.10
2017-05-07T06:43:35.451Z,12.00
2017-05-07T06:48:32.637Z,12.20
2017-05-07T06:51:00.884Z,12.40
2017-05-07T06:53:29.225Z,12.40
2017-05-07T06:55:57.454Z,12.50
2017-05-07T06:58:26.461Z,12.30
2017-05-07T07:00:54.693Z,12.20
2017-05-07T07:03:22.929Z,12.00
2017-05-07T07:05:51.365Z,11.90
2017-05-07T07:08:20.379Z,11.90
2017-05-07T07:10:48.617Z,11.90
2017-05-07T07:13:16.843Z,11.90
2017-05-07T07:15:45.228Z,11.70
2017-05-07T07:18:13.467Z,11.70
2017-05-07T07:20:42.505Z,11.70
2017-05-07T07:23:10.819Z,11.80
2017-05-07T07:25:39.056Z,12.10
2017-05-07T07:28:07.444Z,12.40
2017-05-07T07:30:35.872Z,12.60
2017-05-07T07:33:04.163Z,12.90
2017-05-07T07:35:32.550Z,13.00
2017-05-07T07:38:00.861Z,13.00
2017-05-07T07:40:29.193Z,13.20
2017-05-07T07:42:57.455Z,13.10
2017-05-07T07:45:25.699Z,12.80
2017-05-07T07:47:53.936Z,12.70
2017-05-07T07:50:22.198Z,12.60
2017-05-07T07:52:50.431Z,12.60
2017-05-07T07:55:18.698Z,12.90
2017-05-07T07:57:46.925Z,13.20
2017-05-07T08:00:15.189Z,13.30
2017-05-07T08:02:43.444Z,13.40
2017-05-07T08:05:11.791Z,13.30
2017-05-07T08:07:40.919Z,13.30
2017-05-07T08:10:09.899Z,13.30
2017-05-07T08:12:38.884Z,13.30
2017-05-07T08:15:07.124Z,13.20
2017-05-07T08:17:35.362Z,13.10
2017-05-07T08:20:03.733Z,13.00
2017-05-07T08:22:32.823Z,12.80
2017-05-07T08:25:01.950Z,12.60
2017-05-07T08:27:30.292Z,12.60
2017-05-07T08:29:59.311Z,12.60
2017-05-07T08:32:28.329Z,12.80
2017-05-07T08:34:56.684Z,13.10
2017-05-07T08:37:24.937Z,13.30
2017-05-07T08:39:53.217Z,13.50
2017-05-07T08:42:21.472Z,13.70
2017-05-07T08:44:50.488Z,13.80
2017-05-07T08:47:18.728Z,14.10
2017-05-07T08:49:46.977Z,14.00
2017-05-07T08:52:15.310Z,13.90
2017-05-07T08:54:43.580Z,13.70
2017-05-07T08:57:12.573Z,13.80
2017-05-07T08:59:40.865Z,13.90
2017-05-07T09:02:09.113Z,14.00
2017-05-07T09:04:38.109Z,14.00
2017-05-07T09:07:07.151Z,13.90
2017-05-07T09:09:35.383Z,14.10
2017-05-07T09:15:27.029Z,14.20
2017-05-07T09:18:17.695Z,14.40
2017-05-07T09:20:45.947Z,14.50
2017-05-07T09:23:14.391Z,14.50
2017-05-07T09:25:43.028Z,14.50
2017-05-07T09:28:11.343Z,14.40
2017-05-07T09:30:39.597Z,14.30
2017-05-07T09:33:07.974Z,14.40
2017-05-07T09:35:36.226Z,14.50
2017-05-07T09:38:04.570Z,14.60
2017-05-07T09:40:32.851Z,14.80
2017-05-07T09:43:01.112Z,15.00
2017-05-07T09:45:29.473Z,15.00
2017-05-07T09:47:57.708Z,15.10
2017-05-07T09:50:25.965Z,15.20
2017-05-07T09:52:54.283Z,15.20
2017-05-07T09:55:22.676Z,15.10
2017-05-07T09:57:50.940Z,15.00
2017-05-07T10:00:19.192Z,15.10
2017-05-07T10:02:47.420Z,15.20
2017-05-07T10:05:15.777Z,15.30
2017-05-07T10:07:44.025Z,15.40
2017-05-07T10:10:12.264Z,15.20
2017-05-07T10:12:40.516Z,15.00
2017-05-07T10:15:08.772Z,15.00
2017-05-07T10:17:37.013Z,15.10
2017-05-07T10:20:05.291Z,15.30
2017-05-07T10:22:33.520Z,15.30
2017-05-07T10:25:01.761Z,15.40
2017-05-07T10:27:30.048Z,15.60
2017-05-07T10:29:58.298Z,15.70
2017-05-07T10:32:27.325Z,15.80
2017-05-07T10:34:55.588Z,15.90
2017-05-07T10:37:23.873Z,16.00
2017-05-07T10:39:52.868Z,15.90
2017-05-07T10:42:21.210Z,15.80
2017-05-07T10:44:49.448Z,15.90
2017-05-07T10:47:18.484Z,15.90
2017-05-07T10:49:46.975Z,15.90
2017-05-07T10:52:15.428Z,15.90
2017-05-07T10:54:44.075Z,16.00
2017-05-07T10:57:12.432Z,16.20
2017-05-07T10:59:41.466Z,16.40
2017-05-07T11:02:09.761Z,16.60
2017-05-07T11:04:38.003Z,16.30
2017-05-07T11:07:06.257Z,16.10
2017-05-07T11:09:35.240Z,16.00
2017-05-07T11:12:03.476Z,16.20
2017-05-07T11:14:31.731Z,16.40
2017-05-07T11:16:59.967Z,16.70
2017-05-07T11:19:28.220Z,16.90
2017-05-07T11:21:56.444Z,16.90
2017-05-07T11:24:24.685Z,17.00
2017-05-07T11:26:52.969Z,17.00
2017-05-07T11:29:21.948Z,16.80
2017-05-07T11:31:50.183Z,16.90
2017-05-07T11:34:18.446Z,17.00
2017-05-07T11:36:47.485Z,17.00
2017-05-07T11:39:15.728Z,17.00
2017-05-07T11:41:43.980Z,17.00
2017-05-07T11:44:12.224Z,17.00
2017-05-07T11:46:40.491Z,17.20
2017-05-07T11:49:08.748Z,17.30
2017-05-07T11:51:36.979Z,17.30
2017-05-07T11:54:05.227Z,17.50
2017-05-07T11:56:34.202Z,17.70
2017-05-07T11:59:02.455Z,17.90
2017-05-07T12:01:30.738Z,18.20
2017-05-07T12:03:58.976Z,18.30
2017-05-07T12:06:27.236Z,18.60
2017-05-07T12:08:55.468Z,18.80
2017-05-07T12:11:23.721Z,19.10
2017-05-07T12:13:51.943Z,19.50
2017-05-07T12:16:20.920Z,19.80
2017-05-07T12:18:49.155Z,20.00
2017-05-07T12:21:17.392Z,20.30
2017-05-07T12:23:45.639Z,20.20
2017-05-07T12:26:13.872Z,20.10
2017-05-07T12:28:42.115Z,19.90
2017-05-07T12:31:11.162Z,19.90
2017-05-07T12:33:39.427Z,19.80
2017-05-07T12:36:07.680Z,19.40
2017-05-07T12:38:35.922Z,19.00
2017-05-07T12:41:04.916Z,19.00
2017-05-07T12:43:33.900Z,18.80
2017-05-07T12:46:02.125Z,18.60
2017-05-07T12:48:30.377Z,18.40
2017-05-07T12:50:58.697Z,18.30
2017-05-07T12:53:26.942Z,18.40
2017-05-07T12:55:55.185Z,18.40
2017-05-07T12:58:24.166Z,18.30
2017-05-07T13:00:52.578Z,18.30
2017-05-07T13:03:20.986Z,18.40
2017-05-07T13:05:49.357Z,18.50
2017-05-07T13:08:17.589Z,18.70
2017-05-07T13:10:46.564Z,18.80
2017-05-07T13:13:14.824Z,19.20
2017-05-07T13:15:43.063Z,19.60
2017-05-07T13:18:11.277Z,19.80
2017-05-07T13:20:39.529Z,19.50
2017-05-07T13:23:07.753Z,19.40
2017-05-07T13:25:36.736Z,19.60
2017-05-07T13:28:05.711Z,19.70
2017-05-07T13:30:33.936Z,19.90
2017-05-07T13:33:02.208Z,20.00
2017-05-07T13:35:30.433Z,19.80
2017-05-07T13:37:58.683Z,19.50
2017-05-07T13:40:26.921Z,19.30
2017-05-07T13:42:55.165Z,18.90
2017-05-07T13:45:23.400Z,18.60
2017-05-07T13:47:51.631Z,18.50
2017-05-07T13:50:20.628Z,18.50
2017-05-07T13:52:49.604Z,18.70
2017-05-07T13:55:18.580Z,19.00
2017-05-07T13:57:46.854Z,19.20
2017-05-07T14:00:15.100Z,19.30
2017-05-07T14:02:43.368Z,19.40
2017-05-07T14:05:11.615Z,19.40
2017-05-07T14:07:40.583Z,19.30
2017-05-07T14:10:08.867Z,19.10
2017-05-07T14:12:37.855Z,19.10
2017-05-07T14:15:06.125Z,19.00
2017-05-07T14:17:34.358Z,18.80
2017-05-07T14:20:02.589Z,18.50
2017-05-07T14:22:32.025Z,18.30
2017-05-07T14:25:00.260Z,18.30
2017-05-07T14:27:29.254Z,18.20
2017-05-07T14:29:58.244Z,18.30
2017-05-07T14:32:26.506Z,18.20
2017-05-07T14:34:54.775Z,18.30
2017-05-07T14:37:23.061Z,18.20
2017-05-07T14:39:51.298Z,18.20
2017-05-07T14:42:19.560Z,18.20
2017-05-07T14:44:47.859Z,18.30
2017-05-07T14:47:16.106Z,18.20
2017-05-07T14:49:44.348Z,18.30
2017-05-07T14:52:13.089Z,18.30
2017-05-07T14:54:41.350Z,18.10
2017-05-07T14:57:09.584Z,18.00
2017-05-07T14:59:38.576Z,18.10
2017-05-07T15:02:07.556Z,18.10
2017-05-07T15:04:35.825Z,18.30
2017-05-07T15:07:04.069Z,18.30
2017-05-07T15:09:32.309Z,18.20
2017-05-07T15:12:00.555Z,18.30
2017-05-07T15:14:28.784Z,18.30
2017-05-07T15:16:57.050Z,18.50
2017-05-07T15:19:25.335Z,18.80
2017-05-07T15:21:53.593Z,19.60
2017-05-07T15:24:22.199Z,20.20
2017-05-07T15:26:51.240Z,20.00
2017-05-07T15:29:20.247Z,20.10
2017-05-07T15:31:49.306Z,20.10
2017-05-07T15:34:17.547Z,20.00
2017-05-07T15:36:45.787Z,20.30
2017-05-07T15:39:14.784Z,20.40
2017-05-07T15:41:43.112Z,20.60
2017-05-07T15:44:11.341Z,20.80
2017-05-07T15:46:39.587Z,20.50
2017-05-07T15:49:07.824Z,20.20
2017-05-07T15:51:36.049Z,20.10
2017-05-07T15:54:04.331Z,20.50
2017-05-07T15:56:33.363Z,21.00
2017-05-07T15:59:01.609Z,21.10
2017-05-07T16:01:29.889Z,21.20
2017-05-07T16:03:58.176Z,20.60
2017-05-07T16:06:26.396Z,20.70
2017-05-07T16:08:54.669Z,20.60
2017-05-07T16:11:22.900Z,20.40
2017-05-07T16:13:51.120Z,20.50
2017-05-07T16:16:31.458Z,20.40
2017-05-07T16:22:19.634Z,20.20
2017-05-07T16:25:03.495Z,20.40
2017-05-07T16:27:46.703Z,20.40
2017-05-07T16:30:30.583Z,20.70
2017-05-07T16:33:13.731Z,20.50
2017-05-07T16:35:41.952Z,20.30
2017-05-07T16:38:11.007Z,20.20
2017-05-07T16:40:39.276Z,20.20
2017-05-07T16:43:07.507Z,20.30
2017-05-07T16:45:35.725Z,20.40
2017-05-07T16:48:04.016Z,20.20
2017-05-07T16:50:32.249Z,20.00
2017-05-07T16:53:00.484Z,20.20
2017-05-07T16:55:29.495Z,19.90
2017-05-07T16:57:57.768Z,20.10
2017-05-07T17:00:25.996Z,20.10
2017-05-07T17:02:59.872Z,19.90
2017-05-07T17:05:28.290Z,19.60
2017-05-07T17:07:56.543Z,19.50
2017-05-07T17:10:24.812Z,19.10
2017-05-07T17:12:53.076Z,18.80
2017-05-07T17:15:21.321Z,18.70
2017-05-07T17:17:49.614Z,18.70
2017-05-07T17:20:17.904Z,18.30
2017-05-07T17:22:46.136Z,18.00
2017-05-07T17:25:15.148Z,17.50
2017-05-07T17:27:43.420Z,17.40
2017-05-07T17:30:11.672Z,17.10
2017-05-07T17:32:41.197Z,16.60
2017-05-07T17:35:09.529Z,16.50
2017-05-07T17:37:37.788Z,16.40
2017-05-07T17:40:06.044Z,16.10
2017-05-07T17:42:34.295Z,16.00
2017-05-07T17:45:02.559Z,15.90
2017-05-07T17:47:31.553Z,15.60
2017-05-07T17:50:00.522Z,15.60
2017-05-07T17:52:28.834Z,15.70
2017-05-07T17:54:57.076Z,15.60
2017-05-07T17:57:25.297Z,15.60
2017-05-07T17:59:53.669Z,15.60
2017-05-07T18:02:21.921Z,15.60
2017-05-07T18:04:51.000Z,15.40
2017-05-07T18:07:19.221Z,15.30
2017-05-07T18:09:47.599Z,15.20
2017-05-07T18:12:15.837Z,15.20
2017-05-07T18:14:44.169Z,15.00
2017-05-07T18:17:12.508Z,14.70
2017-05-07T18:19:40.878Z,14.30
2017-05-07T18:22:09.875Z,13.90
2017-05-07T18:24:38.136Z,13.80
2017-05-07T18:27:07.113Z,13.70
2017-05-07T18:29:35.348Z,13.60
2017-05-07T18:32:03.595Z,13.30
2017-05-07T18:34:31.866Z,13.10
2017-05-07T18:37:00.131Z,12.90
2017-05-07T18:39:29.231Z,12.70
2017-05-07T18:41:58.200Z,12.60
2017-05-07T18:44:26.501Z,12.60
2017-05-07T18:46:54.787Z,12.40
2017-05-07T18:49:23.046Z,12.20
2017-05-07T18:51:52.019Z,11.90
2017-05-07T18:54:20.288Z,11.70
2017-05-07T18:56:48.594Z,11.60
2017-05-07T18:59:17.636Z,11.40
2017-05-07T19:01:45.972Z,11.40
2017-05-07T19:04:15.035Z,11.10
2017-05-07T19:06:43.265Z,11.00
2017-05-07T19:09:11.603Z,10.90
2017-05-07T19:11:40.596Z,10.70
2017-05-07T19:14:09.696Z,10.70
2017-05-07T19:16:37.956Z,10.60
2017-05-07T19:21:35.024Z,10.40
2017-05-07T19:24:04.075Z,10.30
2017-05-07T19:26:32.416Z,10.40
2017-05-07T19:29:00.682Z,10.30
2017-05-07T19:31:28.931Z,10.20
2017-05-07T19:33:57.284Z,10.10
2017-05-07T19:36:25.528Z,10.00
2017-05-07T19:38:54.224Z,10.00
2017-05-07T19:41:22.485Z,10.00
2017-05-07T19:43:50.847Z,10.00
2017-05-07T19:46:19.127Z,9.90
2017-05-07T19:48:47.404Z,9.90
2017-05-07T19:51:15.663Z,9.90
2017-05-07T19:53:43.936Z,9.80
2017-05-07T19:56:12.972Z,9.70
2017-05-07T19:58:41.227Z,9.80
2017-05-07T20:01:09.842Z,9.80
2017-05-07T20:03:38.208Z,9.70
2017-05-07T20:06:06.448Z,9.70
2017-05-07T20:08:35.444Z,9.60
2017-05-07T20:11:04.439Z,9.60
2017-05-07T20:13:32.959Z,9.70
2017-05-07T20:16:01.217Z,9.70
2017-05-07T20:18:29.452Z,9.70
2017-05-07T20:20:58.446Z,9.50
2017-05-07T20:23:27.431Z,9.50
2017-05-07T20:25:56.449Z,9.60
2017-05-07T20:28:24.769Z,9.60
2017-05-07T20:30:53.181Z,9.50
2017-05-07T20:33:22.232Z,9.50
2017-05-07T20:35:50.493Z,9.60
2017-05-07T20:38:18.846Z,9.70
2017-05-07T20:40:47.103Z,9.70
2017-05-07T20:43:16.115Z,9.60
2017-05-07T20:45:45.208Z,9.60
2017-05-07T20:48:13.498Z,9.60
2017-05-07T20:50:41.784Z,9.60
2017-05-07T20:53:10.134Z,9.60
2017-05-07T20:55:38.363Z,9.60
2017-05-07T20:58:06.797Z,9.60
2017-05-07T21:00:35.052Z,9.60
2017-05-07T21:03:04.120Z,9.60
2017-05-07T21:05:32.380Z,9.70
2017-05-07T21:08:00.624Z,9.70
2017-05-07T21:10:28.882Z,9.70
2017-05-07T21:12:57.730Z,9.70
2017-05-07T21:15:25.995Z,9.70
2017-05-07T21:17:54.228Z,9.70
2017-05-07T21:20:22.499Z,9.70
2017-05-07T21:22:50.764Z,9.70
2017-05-07T21:25:19.140Z,9.70
2017-05-07T21:27:47.376Z,9.70
2017-05-07T21:30:15.675Z,9.60
2017-05-07T21:32:44.678Z,9.60
2017-05-07T21:35:12.931Z,9.70
2017-05-07T21:37:41.232Z,9.60
2017-05-07T21:40:10.223Z,9.50
2017-05-07T21:42:39.196Z,9.50
2017-05-07T21:45:07.448Z,9.50
2017-05-07T21:47:35.778Z,9.40
2017-05-07T21:50:04.004Z,9.30
2017-05-07T21:52:32.532Z,9.30
2017-05-07T21:55:00.794Z,9.20
2017-05-07T21:57:29.787Z,9.10
2017-05-07T21:59:58.797Z,9.10
2017-05-07T22:02:27.048Z,9.10
2017-05-07T22:04:55.347Z,9.10
2017-05-07T22:07:23.600Z,9.10
2017-05-07T22:09:52.572Z,9.00
2017-05-07T22:12:20.875Z,9.00
2017-05-07T22:14:49.869Z,9.00
2017-05-07T22:17:18.870Z,8.90
2017-05-07T22:19:47.236Z,8.90
2017-05-07T22:22:16.248Z,8.80
2017-05-07T22:24:44.508Z,8.90
2017-05-07T22:27:12.752Z,8.90
2017-05-07T22:29:41.032Z,8.90
2017-05-07T22:32:09.251Z,8.90
2017-05-07T22:34:37.483Z,8.90
2017-05-07T22:37:05.750Z,8.90
2017-05-07T22:39:34.008Z,8.80
2017-05-07T22:42:02.236Z,8.80
2017-05-07T22:44:30.504Z,8.70
2017-05-07T22:46:59.494Z,8.60
2017-05-07T22:49:28.479Z,8.60
2017-05-07T22:51:57.476Z,8.50
2017-05-07T22:54:25.852Z,8.60
2017-05-07T22:56:54.816Z,8.60
2017-05-07T22:59:23.234Z,8.70
2017-05-07T23:01:51.520Z,8.60
2017-05-07T23:04:19.740Z,8.60
2017-05-07T23:06:48.044Z,8.60
2017-05-07T23:09:17.003Z,8.50
2017-05-07T23:11:45.235Z,8.60
2017-05-07T23:14:13.482Z,8.60
2017-05-07T23:16:42.454Z,8.50
2017-05-07T23:19:10.703Z,8.60
2017-05-07T23:21:39.037Z,8.60
2017-05-07T23:24:07.286Z,8.60
2017-05-07T23:26:35.534Z,8.50
2017-05-07T23:29:03.906Z,8.60
2017-05-07T23:31:32.153Z,8.60
2017-05-07T23:34:00.380Z,8.60
2017-05-07T23:36:28.684Z,8.60
2017-05-07T23:38:57.688Z,8.60
2017-05-07T23:41:25.942Z,8.60
2017-05-07T23:43:54.945Z,8.50
2017-05-07T23:46:23.916Z,8.50
2017-05-07T23:48:52.148Z,8.60
2017-05-07T23:51:20.491Z,8.60
2017-05-07T23:53:49.509Z,8.50
2017-05-07T23:56:17.713Z,8.60
2017-05-07T23:58:45.987Z,8.60
